createdAt,value
2022-12-18T00:03:49.724Z,7.03
2022-12-18T00:07:51.649Z,5.72
2022-12-18T00:11:53.446Z,5.30
2022-12-18T00:15:56.780Z,5.32
2022-12-18T00:19:58.685Z,6.22
2022-12-18T00:24:01.009Z,5.18
2022-12-18T00:28:05.982Z,5.45
2022-12-18T00:32:07.768Z,6.03
2022-12-18T00:36:15.485Z,6.05
2022-12-18T00:40:17.257Z,6.68
2022-12-18T00:44:20.332Z,6.07
2022-12-18T00:48:22.286Z,6.57
2022-12-18T00:52:24.073Z,8.18
2022-12-18T00:56:25.894Z,7.28
2022-12-18T01:00:28.380Z,8.38
2022-12-18T01:04:33.040Z,6.22
2022-12-18T01:08:36.468Z,5.45
2022-12-18T01:12:38.897Z,6.60
2022-12-18T01:16:40.841Z,6.75
2022-12-18T01:20:42.686Z,7.57
2022-12-18T01:24:44.447Z,7.15
2022-12-18T01:28:46.251Z,5.28
2022-12-18T01:32:48.118Z,5.90
2022-12-18T01:36:50.008Z,6.28
2022-12-18T01:40:58.708Z,6.78
2022-12-18T01:45:24.779Z,5.53
2022-12-18T01:49:26.559Z,7.43
2022-12-18T01:53:28.978Z,6.35
2022-12-18T01:57:31.336Z,6.10
2022-12-18T02:01:33.834Z,8.32
2022-12-18T02:05:45.097Z,6.38
2022-12-18T02:09:51.343Z,4.70
2022-12-18T02:13:56.492Z,6.30
2022-12-18T02:18:08.225Z,6.38
2022-12-18T02:22:37.330Z,5.60
2022-12-18T02:26:54.603Z,8.93
2022-12-18T02:31:02.975Z,6.63
2022-12-18T02:35:08.076Z,8.57
2022-12-18T02:39:13.212Z,7.93
2022-12-18T02:43:21.919Z,7.20
2022-12-18T02:47:28.722Z,8.88
2022-12-18T02:51:46.087Z,7.50
2022-12-18T02:56:07.016Z,9.02
2022-12-18T03:00:13.103Z,8.25
2022-12-18T03:04:27.229Z,8.37
2022-12-18T03:08:32.780Z,10.90
2022-12-18T03:12:41.496Z,9.55
2022-12-18T03:16:47.355Z,10.27
2022-12-18T03:20:53.129Z,7.90
2022-12-18T03:24:58.515Z,10.07
2022-12-18T03:29:10.855Z,7.90
2022-12-18T03:33:18.888Z,6.50
2022-12-18T03:37:22.190Z,6.53
2022-12-18T03:41:48.172Z,9.13
2022-12-18T03:46:26.084Z,8.65
2022-12-18T03:50:45.744Z,8.77
2022-12-18T03:54:48.321Z,7.18
2022-12-18T03:58:54.616Z,9.05
2022-12-18T04:03:02.673Z,7.22
2022-12-18T04:07:11.491Z,6.57
2022-12-18T04:11:14.475Z,7.32
2022-12-18T04:15:16.521Z,6.35
2022-12-18T04:19:19.554Z,7.90
2022-12-18T04:23:24.411Z,8.18
2022-12-18T04:27:28.428Z,7.35
2022-12-18T04:31:30.934Z,7.30
2022-12-18T04:35:33.620Z,8.63
2022-12-18T04:39:36.800Z,10.07
2022-12-18T04:43:44.909Z,6.07
2022-12-18T04:47:47.108Z,8.77
2022-12-18T04:51:49.127Z,9.43
2022-12-18T04:55:50.931Z,9.85
2022-12-18T04:59:52.858Z,9.32
2022-12-18T05:03:55.899Z,7.45
2022-12-18T05:07:58.194Z,6.90
2022-12-18T05:12:00.178Z,6.65
2022-12-18T05:16:02.310Z,5.75
2022-12-18T05:20:04.718Z,7.13
2022-12-18T05:24:06.821Z,8.25
2022-12-18T05:28:08.767Z,7.15
2022-12-18T05:32:10.609Z,5.97
2022-12-18T05:36:12.823Z,7.40
2022-12-18T05:40:14.739Z,7.10
2022-12-18T05:44:16.664Z,7.93
2022-12-18T05:48:19.171Z,8.10
2022-12-18T05:52:20.975Z,7.35
2022-12-18T05:56:24.267Z,7.40
2022-12-18T06:00:26.321Z,6.72
2022-12-18T06:04:32.369Z,8.15
2022-12-18T06:08:34.189Z,6.57
2022-12-18T06:12:36.136Z,6.57
2022-12-18T06:16:38.405Z,7.25
2022-12-18T06:20:42.405Z,4.93
2022-12-18T06:24:44.245Z,5.90
2022-12-18T06:28:46.560Z,7.13
2022-12-18T06:32:53.186Z,4.90
2022-12-18T06:36:58.235Z,5.75
2022-12-18T06:41:00.010Z,5.32
2022-12-18T06:45:01.780Z,6.78
2022-12-18T06:49:03.676Z,4.72
2022-12-18T06:53:05.432Z,5.47
2022-12-18T06:57:08.975Z,5.60
2022-12-18T07:01:12.461Z,7.57
2022-12-18T07:05:14.299Z,7.07
2022-12-18T07:09:16.042Z,6.20
2022-12-18T07:13:18.008Z,6.45
2022-12-18T07:17:19.758Z,5.03
2022-12-18T07:21:22.328Z,6.72
2022-12-18T07:25:24.272Z,6.72
2022-12-18T07:29:26.060Z,5.53
2022-12-18T07:33:27.769Z,6.03
2022-12-18T07:37:31.000Z,7.55
2022-12-18T07:41:32.825Z,5.32
2022-12-18T07:45:44.479Z,7.13
2022-12-18T07:49:46.279Z,5.10
2022-12-18T07:53:52.110Z,7.97
2022-12-18T07:57:59.255Z,7.65
2022-12-18T08:02:02.965Z,5.90
2022-12-18T08:06:07.589Z,6.20
2022-12-18T08:10:09.769Z,7.45
2022-12-18T08:14:11.571Z,6.38
2022-12-18T08:18:14.511Z,6.15
2022-12-18T08:22:16.434Z,6.05
2022-12-18T08:26:18.814Z,7.22
2022-12-18T08:30:20.964Z,7.78
2022-12-18T08:34:22.708Z,8.60
2022-12-18T08:38:24.930Z,7.45
2022-12-18T08:42:45.100Z,6.55
2022-12-18T08:46:46.987Z,7.75
2022-12-18T08:50:58.964Z,7.28
2022-12-18T08:55:00.747Z,5.47
2022-12-18T08:59:02.682Z,6.35
2022-12-18T09:03:04.519Z,6.63
2022-12-18T09:07:06.341Z,7.10
2022-12-18T09:11:14.478Z,6.20
2022-12-18T09:15:16.308Z,8.38
2022-12-18T09:19:18.083Z,7.38
2022-12-18T09:23:20.397Z,6.53
2022-12-18T09:27:22.371Z,7.38
2022-12-18T09:31:25.781Z,7.70
2022-12-18T09:35:28.863Z,6.82
2022-12-18T09:39:30.671Z,8.35
2022-12-18T09:43:42.175Z,8.73
2022-12-18T09:47:45.731Z,9.52
2022-12-18T09:51:54.069Z,9.18
2022-12-18T09:55:57.406Z,8.13
2022-12-18T10:00:12.311Z,9.00
2022-12-18T10:04:16.987Z,7.85
2022-12-18T10:08:54.470Z,8.60
2022-12-18T10:13:18.756Z,9.02
2022-12-18T10:17:36.779Z,8.63
2022-12-18T10:22:03.957Z,8.30
2022-12-18T10:26:08.052Z,7.75
2022-12-18T10:30:16.180Z,8.75
2022-12-18T10:34:17.957Z,8.65
2022-12-18T10:38:20.263Z,9.52
2022-12-18T10:42:22.065Z,9.05
2022-12-18T10:46:23.886Z,9.25
2022-12-18T10:51:01.345Z,8.48
2022-12-18T10:54:58.017Z,7.65
2022-12-18T10:59:14.097Z,8.32
2022-12-18T11:03:32.442Z,8.68
2022-12-18T11:08:01.096Z,7.80
2022-12-18T11:12:07.122Z,7.53
2022-12-18T11:16:18.687Z,8.53
2022-12-18T11:20:28.640Z,7.40
2022-12-18T11:24:35.720Z,7.75
2022-12-18T11:29:08.138Z,7.60
2022-12-18T11:33:16.449Z,7.30
2022-12-18T11:37:21.767Z,6.10
2022-12-18T11:41:58.556Z,6.82
2022-12-18T11:46:06.782Z,6.95
2022-12-18T11:50:23.201Z,6.88
2022-12-18T11:54:25.101Z,7.43
2022-12-18T11:58:51.406Z,6.38
2022-12-18T12:03:02.092Z,8.00
2022-12-18T12:07:11.023Z,5.88
2022-12-18T12:12:03.065Z,5.40
2022-12-18T12:16:10.576Z,5.35
2022-12-18T12:20:33.575Z,7.10
2022-12-18T12:25:04.773Z,7.10
2022-12-18T12:29:37.430Z,8.35
2022-12-18T12:33:52.607Z,7.68
2022-12-18T12:38:09.255Z,8.02
2022-12-18T12:42:44.202Z,7.80
2022-12-18T12:46:47.332Z,6.80
2022-12-18T12:50:50.305Z,7.72
2022-12-18T12:54:53.028Z,8.75
2022-12-18T12:59:03.582Z,8.68
2022-12-18T13:03:36.500Z,6.38
2022-12-18T13:07:47.173Z,7.82
2022-12-18T13:12:07.905Z,8.07
2022-12-18T13:16:11.634Z,7.30
2022-12-18T13:20:17.172Z,8.25
2022-12-18T13:24:27.373Z,8.65
2022-12-18T13:28:34.914Z,7.93
2022-12-18T13:32:36.728Z,9.23
2022-12-18T13:36:38.693Z,7.95
2022-12-18T13:40:40.398Z,8.15
2022-12-18T13:44:42.709Z,6.32
2022-12-18T13:48:54.942Z,7.10
2022-12-18T13:52:56.696Z,5.70
2022-12-18T13:56:58.653Z,5.25
2022-12-18T14:01:00.841Z,5.13
2022-12-18T14:05:03.290Z,6.50
2022-12-18T14:09:06.057Z,6.90
2022-12-18T14:13:16.333Z,5.80
2022-12-18T14:17:20.313Z,5.35
2022-12-18T14:21:29.246Z,6.40
2022-12-18T14:25:32.033Z,4.38
2022-12-18T14:29:35.845Z,5.35
2022-12-18T14:33:39.330Z,5.68
2022-12-18T14:37:41.402Z,5.55
2022-12-18T14:41:43.161Z,4.25
2022-12-18T14:45:47.027Z,4.20
2022-12-18T14:49:49.597Z,5.70
2022-12-18T14:53:57.463Z,5.05
2022-12-18T14:57:59.568Z,5.60
2022-12-18T15:02:30.640Z,6.00
2022-12-18T15:06:40.895Z,7.85
2022-12-18T15:10:48.587Z,8.52
2022-12-18T15:14:50.347Z,7.10
2022-12-18T15:18:54.054Z,6.80
2022-12-18T15:22:55.798Z,5.80
2022-12-18T15:26:57.681Z,6.63
2022-12-18T15:31:00.673Z,8.55
2022-12-18T15:35:12.153Z,9.02
2022-12-18T15:39:14.324Z,9.60
2022-12-18T15:43:34.672Z,7.43
2022-12-18T15:47:36.389Z,7.22
2022-12-18T15:51:39.390Z,10.10
2022-12-18T15:56:01.270Z,7.30
2022-12-18T16:00:03.739Z,7.47
2022-12-18T16:04:07.362Z,11.85
2022-12-18T16:08:09.189Z,10.45
2022-12-18T16:12:20.291Z,13.10
2022-12-18T16:16:22.060Z,9.93
2022-12-18T16:20:25.056Z,9.55
2022-12-18T16:24:30.282Z,10.70
2022-12-18T16:28:32.046Z,9.20
2022-12-18T16:32:33.857Z,10.40
2022-12-18T16:36:35.618Z,10.20
2022-12-18T16:40:58.768Z,9.45
2022-12-18T16:45:00.513Z,8.00
2022-12-18T16:49:02.299Z,11.80
2022-12-18T16:53:04.053Z,10.10
2022-12-18T16:57:05.896Z,9.27
2022-12-18T17:01:09.659Z,10.32
2022-12-18T17:05:11.510Z,8.50
2022-12-18T17:09:16.345Z,9.80
2022-12-18T17:13:21.433Z,9.27
2022-12-18T17:17:27.225Z,11.40
2022-12-18T17:21:29.144Z,11.80
2022-12-18T17:25:30.853Z,9.40
2022-12-18T17:29:32.741Z,7.65
2022-12-18T17:33:35.236Z,7.22
2022-12-18T17:37:36.996Z,10.10
2022-12-18T17:41:39.210Z,9.57
2022-12-18T17:45:41.311Z,9.25
2022-12-18T17:49:43.162Z,8.32
2022-12-18T17:53:45.184Z,9.65
2022-12-18T17:57:47.665Z,8.80
2022-12-18T18:01:49.618Z,9.10
2022-12-18T18:05:58.533Z,8.32
2022-12-18T18:10:00.283Z,10.05
2022-12-18T18:14:04.165Z,9.57
2022-12-18T18:18:06.118Z,9.23
2022-12-18T18:22:07.845Z,9.93
2022-12-18T18:26:10.178Z,9.60
2022-12-18T18:30:12.423Z,9.82
2022-12-18T18:34:19.122Z,8.55
2022-12-18T18:38:20.939Z,8.98
2022-12-18T18:42:22.672Z,9.93
2022-12-18T18:46:25.501Z,9.43
2022-12-18T18:50:27.381Z,8.88
2022-12-18T18:54:31.058Z,9.60
2022-12-18T18:58:33.703Z,9.25
2022-12-18T19:02:35.544Z,9.73
2022-12-18T19:06:37.496Z,9.90
2022-12-18T19:10:41.847Z,9.18
2022-12-18T19:14:44.394Z,11.07
2022-12-18T19:18:46.188Z,9.23
2022-12-18T19:22:55.126Z,9.70
2022-12-18T19:26:58.176Z,9.23
2022-12-18T19:31:02.846Z,10.50
2022-12-18T19:35:04.939Z,9.10
2022-12-18T19:39:13.190Z,10.23
2022-12-18T19:43:15.297Z,11.63
2022-12-18T19:47:17.932Z,9.45
2022-12-18T19:51:25.027Z,11.15
2022-12-18T19:55:26.964Z,8.38
2022-12-18T19:59:28.718Z,8.65
2022-12-18T20:03:32.890Z,9.77
2022-12-18T20:07:34.841Z,8.98
2022-12-18T20:11:41.642Z,10.35
2022-12-18T20:15:45.523Z,9.73
2022-12-18T20:19:47.431Z,9.60
2022-12-18T20:23:49.310Z,10.50
2022-12-18T20:27:51.317Z,9.40
2022-12-18T20:31:53.533Z,7.90
2022-12-18T20:36:01.066Z,8.48
2022-12-18T20:40:05.780Z,10.75
2022-12-18T20:44:22.715Z,9.63
2022-12-18T20:48:26.852Z,7.97
2022-12-18T20:52:28.607Z,10.27
2022-12-18T20:56:33.357Z,9.82
2022-12-18T21:00:35.405Z,10.25
2022-12-18T21:04:37.185Z,9.13
2022-12-18T21:08:39.414Z,9.77
2022-12-18T21:12:52.593Z,9.60
2022-12-18T21:17:02.061Z,7.65
2022-12-18T21:21:03.998Z,8.30
2022-12-18T21:25:05.991Z,10.07
2022-12-18T21:29:11.493Z,9.80
2022-12-18T21:33:13.251Z,7.40
2022-12-18T21:37:15.347Z,10.23
2022-12-18T21:41:41.642Z,8.38
2022-12-18T21:45:44.009Z,7.70
2022-12-18T21:49:45.799Z,9.82
2022-12-18T21:53:47.555Z,10.43
2022-12-18T21:57:51.005Z,7.65
2022-12-18T22:01:54.307Z,10.27
2022-12-18T22:06:08.972Z,10.30
2022-12-18T22:10:11.441Z,10.15
2022-12-18T22:14:14.837Z,10.20
2022-12-18T22:18:16.645Z,9.02
2022-12-18T22:22:18.446Z,10.05
2022-12-18T22:26:26.431Z,10.20
2022-12-18T22:30:28.161Z,9.93
2022-12-18T22:34:34.243Z,9.18
2022-12-18T22:38:38.092Z,8.57
2022-12-18T22:42:39.799Z,8.50
2022-12-18T22:46:47.316Z,9.45
2022-12-18T22:50:53.445Z,8.63
2022-12-18T22:55:00.289Z,7.80
2022-12-18T22:59:04.718Z,10.80
2022-12-18T23:03:07.135Z,9.25
2022-12-18T23:07:09.259Z,10.73
2022-12-18T23:11:18.588Z,7.80
2022-12-18T23:15:24.209Z,8.00
2022-12-18T23:19:30.187Z,10.85
2022-12-18T23:23:34.049Z,9.85
2022-12-18T23:27:35.798Z,10.00
2022-12-18T23:31:39.327Z,9.02
2022-12-18T23:35:41.098Z,9.93
2022-12-18T23:39:42.844Z,10.35
2022-12-18T23:43:45.240Z,12.35
2022-12-18T23:47:50.944Z,8.35
2022-12-18T23:51:55.194Z,7.97
2022-12-18T23:55:57.000Z,11.00
